Time;durP1;ratioP1;P1;durP2;ratioP2;P2;SDS_P1;SDS_P2;PMS_P1;PMS_P2;Temp;Humidity;BMP_temperature;BMP_pressure;BME280_temperature;BME280_humidity;BME280_pressure;Samples;Min_cycle;Max_cycle;Signal;HPM_P1;HPM_P2
2022/05/09 00:00:07;;;;;;;9.43;2.97;;;9.00;99.70;;;;;;5140226;27;20078;-73
2022/05/09 00:02:33;;;;;;;9.77;2.85;;;9.00;99.80;;;;;;5122817;27;20082;-73
2022/05/09 00:04:59;;;;;;;12.52;3.25;;;9.10;99.80;;;;;;5122819;27;20093;-74
2022/05/09 00:07:25;;;;;;;8.57;2.88;;;9.10;99.70;;;;;;5122727;27;20046;-73
2022/05/09 00:09:50;;;;;;;11.07;2.60;;;9.10;99.60;;;;;;5140097;27;20055;-73
2022/05/09 00:12:16;;;;;;;8.27;2.83;;;9.10;99.50;;;;;;5105961;27;20039;-73
2022/05/09 00:14:42;;;;;;;8.30;2.97;;;9.00;99.60;;;;;;5140013;27;20111;-73
2022/05/09 00:17:08;;;;;;;12.63;3.05;;;9.00;99.70;;;;;;5122492;27;20473;-74
2022/05/09 00:19:34;;;;;;;10.88;3.10;;;8.90;99.70;;;;;;5139193;27;20042;-74
2022/05/09 00:21:59;;;;;;;11.73;3.08;;;8.80;99.70;;;;;;5139524;27;20501;-73
2022/05/09 00:24:25;;;;;;;12.10;3.30;;;8.80;99.90;;;;;;5122429;27;20133;-73
2022/05/09 00:26:52;;;;;;;8.27;2.80;;;8.90;99.80;;;;;;5139615;27;20158;-73
2022/05/09 00:29:20;;;;;;;9.18;3.10;;;9.00;99.60;;;;;;5139499;27;20051;-73
2022/05/09 00:31:49;;;;;;;11.40;3.42;;;8.90;99.60;;;;;;5139407;27;20123;-73
2022/05/09 00:34:19;;;;;;;14.02;3.22;;;8.80;99.80;;;;;;5139024;27;20082;-74
2022/05/09 00:36:46;;;;;;;9.07;2.85;;;8.80;99.90;;;;;;5122550;27;20043;-73
2022/05/09 00:39:13;;;;;;;13.75;3.10;;;8.80;99.90;;;;;;5139172;27;20505;-73
2022/05/09 00:41:42;;;;;;;8.63;3.22;;;8.70;99.90;;;;;;5139497;27;20051;-73
2022/05/09 00:44:11;;;;;;;8.65;3.10;;;8.70;99.90;;;;;;5122715;27;20046;-73
2022/05/09 00:46:43;;;;;;;8.77;2.92;;;8.70;99.90;;;;;;5122021;27;20458;-73
2022/05/09 00:49:29;;;;;;;13.48;3.28;;;8.70;99.90;;;;;;5156686;27;20058;-73
2022/05/09 00:51:58;;;;;;;7.35;2.90;;;8.80;99.90;;;;;;5121858;27;20150;-73
2022/05/09 00:54:26;;;;;;;9.00;2.83;;;8.80;99.90;;;;;;5138655;27;20069;-73
2022/05/09 00:57:02;;;;;;;9.82;2.88;;;8.90;99.90;;;;;;5138905;27;20043;-74
2022/05/09 00:59:31;;;;;;;8.17;3.00;;;8.80;99.70;;;;;;5121662;27;20519;-73
2022/05/09 01:01:57;;;;;;;11.77;3.47;;;8.70;99.90;;;;;;5117999;27;20082;-73
2022/05/09 01:04:27;;;;;;;9.90;3.15;;;8.70;99.90;;;;;;5118412;27;20115;-73
2022/05/09 01:06:54;;;;;;;10.80;3.55;;;8.90;99.90;;;;;;5101414;27;20145;-73
2022/05/09 01:09:20;;;;;;;10.07;3.50;;;8.80;99.90;;;;;;5118232;27;20371;-73
2022/05/09 01:11:48;;;;;;;13.27;4.00;;;8.80;99.90;;;;;;5101200;27;20058;-73
2022/05/09 01:14:17;;;;;;;16.23;3.90;;;8.70;99.90;;;;;;5118055;27;20505;-73
2022/05/09 01:16:43;;;;;;;11.68;3.13;;;8.80;99.90;;;;;;5118304;27;20061;-73
2022/05/09 01:19:33;;;;;;;14.43;3.53;;;8.80;99.90;;;;;;5100236;27;20051;-74
2022/05/09 01:22:00;;;;;;;13.85;3.63;;;8.80;99.90;;;;;;5100845;27;20043;-73
2022/05/09 01:24:27;;;;;;;12.20;3.80;;;8.80;99.90;;;;;;5100478;27;20491;-73
2022/05/09 01:26:53;;;;;;;12.60;3.45;;;8.80;99.90;;;;;;5100792;27;20051;-73
2022/05/09 01:29:56;;;;;;;14.00;3.60;;;8.80;99.90;;;;;;5117872;27;20092;-73
2022/05/09 01:32:34;;;;;;;9.50;3.05;;;8.80;99.90;;;;;;5065007;27;20111;-74
2022/05/09 01:35:07;;;;;;;11.48;3.83;;;8.80;99.90;;;;;;5117539;27;20047;-74
2022/05/09 01:37:34;;;;;;;12.38;3.30;;;8.80;99.90;;;;;;5117900;27;20047;-73
2022/05/09 01:40:00;;;;;;;10.23;3.17;;;8.80;99.90;;;;;;5117431;27;20107;-73
2022/05/09 01:42:25;;;;;;;14.10;3.50;;;8.80;99.90;;;;;;5117777;27;20497;-73
2022/05/09 01:44:51;;;;;;;10.70;3.70;;;8.80;99.90;;;;;;5083444;27;20083;-73
2022/05/09 01:50:02;;;;;;;13.57;3.95;;;8.70;99.90;;;;;;5102165;27;20138;-74
2022/05/09 01:52:27;;;;;;;13.35;3.53;;;8.70;99.90;;;;;;5117409;27;20130;-73
2022/05/09 01:54:53;;;;;;;12.30;3.30;;;8.60;99.90;;;;;;5100141;27;20122;-73
2022/05/09 01:57:19;;;;;;;14.57;3.85;;;8.60;99.90;;;;;;5100074;27;20482;-73
2022/05/09 01:59:45;;;;;;;12.43;3.42;;;8.70;99.90;;;;;;5116821;27;20046;-74
2022/05/09 02:02:19;;;;;;;15.82;3.40;;;8.60;99.90;;;;;;5083287;27;20066;-73
2022/05/09 02:04:46;;;;;;;8.70;3.10;;;8.70;99.90;;;;;;5100351;27;20086;-73
2022/05/09 02:07:14;;;;;;;10.20;3.17;;;8.60;99.90;;;;;;5099299;27;20051;-73
2022/05/09 02:09:45;;;;;;;9.05;3.00;;;8.60;99.90;;;;;;5100261;27;20449;-73
2022/05/09 02:12:12;;;;;;;13.05;3.50;;;8.60;99.90;;;;;;5117026;27;20130;-74
2022/05/09 02:14:38;;;;;;;9.15;3.22;;;8.60;99.90;;;;;;5083212;27;20095;-74
2022/05/09 02:17:09;;;;;;;7.85;2.92;;;8.50;99.90;;;;;;5100002;27;20047;-73
2022/05/09 02:19:35;;;;;;;11.77;3.47;;;8.50;99.90;;;;;;5099238;27;20133;-73
2022/05/09 02:22:01;;;;;;;12.13;3.28;;;8.40;99.90;;;;;;5099960;27;20477;-73
2022/05/09 02:24:28;;;;;;;13.23;3.72;;;8.40;99.90;;;;;;5099539;27;20050;-73
2022/05/09 02:26:55;;;;;;;12.90;3.63;;;8.50;99.90;;;;;;5099872;27;20442;-74
2022/05/09 02:29:21;;;;;;;10.77;3.30;;;8.50;99.90;;;;;;5099464;27;20043;-73
2022/05/09 02:31:47;;;;;;;12.50;3.22;;;8.40;99.90;;;;;;5099571;27;20081;-74
2022/05/09 02:34:13;;;;;;;8.50;3.33;;;8.30;99.90;;;;;;5099852;27;20051;-73
2022/05/09 02:36:39;;;;;;;10.80;3.25;;;8.20;99.90;;;;;;5082434;27;20039;-73
2022/05/09 02:39:05;;;;;;;10.20;3.20;;;8.20;99.90;;;;;;5116294;27;20379;-74
2022/05/09 02:41:31;;;;;;;6.07;3.15;;;8.10;99.90;;;;;;5116302;27;20054;-73
2022/05/09 02:43:57;;;;;;;12.43;2.90;;;8.20;99.90;;;;;;5116649;27;20046;-74
2022/05/09 02:46:23;;;;;;;12.68;3.38;;;8.20;99.90;;;;;;5099342;27;20043;-73
2022/05/09 02:48:48;;;;;;;9.85;3.45;;;8.20;99.90;;;;;;5099901;28;20120;-73
2022/05/09 02:51:14;;;;;;;8.40;3.03;;;8.40;99.90;;;;;;5115899;27;20131;-73
2022/05/09 02:53:40;;;;;;;12.90;3.72;;;8.30;99.90;;;;;;5116403;28;20050;-73
2022/05/09 02:56:06;;;;;;;10.07;3.22;;;8.30;99.90;;;;;;5098983;28;20047;-74
2022/05/09 02:58:34;;;;;;;11.57;3.40;;;8.20;99.90;;;;;;5116099;28;20054;-73
2022/05/09 03:00:59;;;;;;;15.93;3.65;;;8.00;99.90;;;;;;5116536;28;20050;-73
2022/05/09 03:06:13;;;;;;;9.10;3.58;;;8.10;99.90;;;;;;5116420;28;20405;-74
2022/05/09 03:08:39;;;;;;;7.43;3.17;;;8.00;99.90;;;;;;5099122;28;20059;-73
2022/05/09 03:11:05;;;;;;;10.88;3.42;;;8.00;99.90;;;;;;5099377;28;20047;-73
2022/05/09 03:13:31;;;;;;;10.18;3.35;;;8.00;99.90;;;;;;5116083;28;20126;-73
2022/05/09 03:15:58;;;;;;;13.18;4.00;;;8.00;99.90;;;;;;5115775;28;20035;-74
2022/05/09 03:18:25;;;;;;;15.27;3.63;;;7.90;99.90;;;;;;5084903;27;20039;-73
2022/05/09 03:20:52;;;;;;;13.07;3.75;;;8.00;99.90;;;;;;5119633;27;20086;-74
2022/05/09 03:23:18;;;;;;;13.13;4.22;;;8.00;99.90;;;;;;5103260;27;20062;-73
2022/05/09 03:25:44;;;;;;;7.43;2.95;;;8.00;99.90;;;;;;5120317;27;20047;-73
2022/05/09 03:28:14;;;;;;;10.07;3.10;;;8.00;99.90;;;;;;5086272;27;20051;-73
2022/05/09 03:30:40;;;;;;;8.85;3.10;;;7.90;99.90;;;;;;5103305;27;20051;-73
2022/05/09 03:33:07;;;;;;;5.95;3.00;;;7.90;99.90;;;;;;5086027;27;20054;-73
2022/05/09 03:35:34;;;;;;;6.93;2.83;;;7.80;99.90;;;;;;5102883;27;20047;-73
2022/05/09 03:38:00;;;;;;;12.02;3.30;;;7.90;99.90;;;;;;5103275;27;20497;-73
2022/05/09 03:40:26;;;;;;;7.40;2.95;;;7.90;99.90;;;;;;5102927;27;20043;-73
2022/05/09 03:42:51;;;;;;;8.90;2.97;;;7.90;99.90;;;;;;5119755;27;20046;-73
2022/05/09 03:45:17;;;;;;;10.20;3.38;;;7.90;99.90;;;;;;5102905;27;20047;-73
2022/05/09 03:47:43;;;;;;;11.02;3.17;;;7.90;99.90;;;;;;5119932;27;20074;-73
2022/05/09 03:50:11;;;;;;;10.48;3.15;;;8.00;99.90;;;;;;5119092;27;20073;-73
2022/05/09 03:52:37;;;;;;;9.98;3.30;;;8.00;99.90;;;;;;5119771;27;20043;-73
2022/05/09 03:55:04;;;;;;;9.00;3.20;;;7.90;99.90;;;;;;5119625;27;20039;-73
2022/05/09 03:57:29;;;;;;;7.32;2.92;;;7.80;99.90;;;;;;5103333;27;20047;-74
2022/05/09 03:59:55;;;;;;;7.97;2.88;;;7.80;99.90;;;;;;5123317;27;20061;-73
2022/05/09 04:02:21;;;;;;;8.48;3.25;;;7.80;99.90;;;;;;5140358;27;20047;-73
2022/05/09 04:04:47;;;;;;;6.97;3.45;;;7.80;99.90;;;;;;5105960;27;20473;-73
2022/05/09 04:07:12;;;;;;;13.25;3.30;;;7.80;99.90;;;;;;5140114;27;20485;-73
2022/05/09 04:09:38;;;;;;;12.40;3.67;;;7.90;99.90;;;;;;5122659;27;20062;-73
2022/05/09 04:12:04;;;;;;;9.68;3.42;;;7.90;99.90;;;;;;5139573;27;20057;-73
2022/05/09 04:17:14;;;;;;;9.90;3.33;;;8.00;99.90;;;;;;5139657;27;20465;-73
2022/05/09 04:19:41;;;;;;;11.02;3.70;;;8.00;99.90;;;;;;5105692;27;20070;-73
2022/05/09 04:22:07;;;;;;;11.40;3.40;;;8.10;99.90;;;;;;5122559;27;20053;-73
2022/05/09 04:24:33;;;;;;;10.05;3.22;;;8.10;99.90;;;;;;5139772;27;20046;-73
2022/05/09 04:27:00;;;;;;;9.43;3.10;;;8.10;99.90;;;;;;5139817;27;20055;-73
2022/05/09 04:29:27;;;;;;;8.98;3.67;;;8.10;99.90;;;;;;5139015;27;20042;-73
2022/05/09 04:31:53;;;;;;;10.57;3.42;;;8.10;99.90;;;;;;5122446;27;20079;-73
2022/05/09 04:34:18;;;;;;;13.05;3.53;;;8.10;99.90;;;;;;5122359;27;20450;-73
2022/05/09 04:36:44;;;;;;;8.23;3.30;;;8.10;99.90;;;;;;5139024;27;20035;-73
2022/05/09 04:39:10;;;;;;;10.25;3.20;;;8.10;99.90;;;;;;5122148;27;20088;-73
2022/05/09 04:41:39;;;;;;;8.75;3.25;;;8.10;99.90;;;;;;5139122;27;20179;-73
2022/05/09 04:44:05;;;;;;;8.90;3.13;;;8.10;99.90;;;;;;5121949;27;20134;-73
2022/05/09 04:46:32;;;;;;;7.93;3.20;;;8.00;99.90;;;;;;5138995;27;20088;-73
2022/05/09 04:48:58;;;;;;;9.85;3.22;;;8.20;99.90;;;;;;5104838;27;20046;-73
2022/05/09 04:51:24;;;;;;;8.07;3.38;;;8.20;99.90;;;;;;5121546;27;20049;-73
2022/05/09 04:53:50;;;;;;;8.88;3.45;;;8.10;99.90;;;;;;5138835;27;20054;-73
2022/05/09 04:56:17;;;;;;;10.77;3.67;;;8.20;99.90;;;;;;5138790;27;20043;-73
2022/05/09 04:58:42;;;;;;;9.27;3.78;;;8.30;99.90;;;;;;5093095;27;20062;-73
2022/05/09 05:01:09;;;;;;;6.75;3.35;;;8.40;99.90;;;;;;5101003;27;20456;-73
2022/05/09 05:03:35;;;;;;;8.20;3.30;;;8.50;99.90;;;;;;5118507;27;20043;-73
2022/05/09 05:06:03;;;;;;;8.60;3.40;;;8.50;99.90;;;;;;5118464;27;20049;-73
2022/05/09 05:08:33;;;;;;;10.50;3.72;;;8.60;99.90;;;;;;5101460;27;20103;-73
2022/05/09 05:11:00;;;;;;;12.77;4.00;;;8.70;99.90;;;;;;5118215;27;20138;-73
2022/05/09 05:13:26;;;;;;;7.55;3.50;;;8.90;99.90;;;;;;5084588;27;20047;-73
2022/05/09 05:15:53;;;;;;;9.48;3.47;;;8.90;99.90;;;;;;5100646;27;20043;-73
2022/05/09 05:18:23;;;;;;;9.70;3.97;;;9.00;99.90;;;;;;5118175;27;20058;-73
2022/05/09 05:20:49;;;;;;;15.00;4.45;;;9.30;99.90;;;;;;5117547;27;20055;-73
2022/05/09 05:23:15;;;;;;;13.57;5.18;;;9.40;99.90;;;;;;5100797;27;20493;-73
2022/05/09 05:25:44;;;;;;;17.35;5.30;;;9.50;99.90;;;;;;5117815;27;20051;-73
2022/05/09 05:28:11;;;;;;;15.45;5.88;;;9.60;99.90;;;;;;5100538;27;20058;-73
2022/05/09 05:30:37;;;;;;;15.38;5.25;;;9.80;99.90;;;;;;5100975;27;20062;-73
2022/05/09 05:33:04;;;;;;;15.93;6.35;;;10.00;99.90;;;;;;5083932;27;20061;-73
2022/05/09 05:35:30;;;;;;;20.15;6.13;;;10.10;99.90;;;;;;5117730;27;20043;-73
2022/05/09 05:37:56;;;;;;;16.15;5.93;;;10.30;99.90;;;;;;5100588;27;20047;-73
2022/05/09 05:40:22;;;;;;;21.98;6.43;;;10.40;99.90;;;;;;5100635;27;20039;-73
2022/05/09 05:42:49;;;;;;;24.02;7.43;;;10.60;99.90;;;;;;5100264;27;20171;-70
2022/05/09 05:45:17;;;;;;;32.88;7.70;;;10.60;99.90;;;;;;5118784;27;20047;-72
2022/05/09 05:47:43;;;;;;;20.23;7.30;;;10.70;99.90;;;;;;5117685;27;20051;-73
2022/05/09 05:50:11;;;;;;;28.80;8.25;;;10.80;99.90;;;;;;5116731;27;20039;-73
2022/05/09 05:52:37;;;;;;;28.02;7.32;;;11.00;99.90;;;;;;5117526;27;20092;-73
2022/05/09 05:55:03;;;;;;;24.48;7.60;;;11.10;99.90;;;;;;5100091;27;20470;-78
2022/05/09 05:57:31;;;;;;;20.45;7.57;;;11.10;99.90;;;;;;5116955;27;20104;-77
2022/05/09 05:59:59;;;;;;;31.73;8.70;;;11.10;99.90;;;;;;5116282;27;20486;-77
2022/05/09 06:02:26;;;;;;;30.92;8.57;;;11.10;99.90;;;;;;5116172;27;20164;-76
2022/05/09 06:04:52;;;;;;;22.95;7.88;;;11.30;99.90;;;;;;5116519;27;20050;-77
2022/05/09 06:07:19;;;;;;;25.48;8.32;;;11.50;99.90;;;;;;5099555;27;20046;-78
2022/05/09 06:09:46;;;;;;;25.90;9.20;;;11.80;99.90;;;;;;5115846;27;20043;-78
2022/05/09 06:12:14;;;;;;;23.80;7.90;;;12.00;99.90;;;;;;5116237;27;20478;-77
2022/05/09 06:14:40;;;;;;;24.08;7.63;;;12.10;99.90;;;;;;5100035;27;20057;-78
2022/05/09 06:17:07;;;;;;;18.67;7.40;;;12.10;99.90;;;;;;5099877;27;20055;-78
2022/05/09 06:19:33;;;;;;;22.27;6.65;;;12.00;99.90;;;;;;5116116;27;20045;-78
2022/05/09 06:22:00;;;;;;;25.23;7.97;;;12.20;99.90;;;;;;5116652;27;20043;-77
2022/05/09 06:24:26;;;;;;;30.85;7.30;;;12.40;99.90;;;;;;5116632;27;20047;-77
2022/05/09 06:26:52;;;;;;;26.58;6.95;;;12.40;99.90;;;;;;5083178;27;20047;-76
2022/05/09 06:29:18;;;;;;;17.98;6.07;;;12.40;99.90;;;;;;5116512;27;20474;-77
2022/05/09 06:31:45;;;;;;;26.17;7.82;;;12.50;99.90;;;;;;5116724;27;20480;-76
2022/05/09 06:34:13;;;;;;;24.95;7.80;;;12.70;99.90;;;;;;5116966;27;20086;-76
2022/05/09 06:36:40;;;;;;;23.45;7.18;;;12.50;99.90;;;;;;5099277;27;20561;-76
2022/05/09 06:39:08;;;;;;;21.75;7.20;;;12.50;99.90;;;;;;5099477;27;20039;-77
2022/05/09 06:41:34;;;;;;;19.38;6.38;;;12.50;99.90;;;;;;5099598;27;20131;-76
2022/05/09 06:44:00;;;;;;;27.77;6.90;;;12.50;99.90;;;;;;5099520;27;20051;-75
2022/05/09 06:46:26;;;;;;;20.23;6.57;;;12.60;99.90;;;;;;5099548;27;20039;-78
2022/05/09 06:48:52;;;;;;;18.85;6.80;;;12.40;99.90;;;;;;5116389;28;20039;-79
2022/05/09 06:51:20;;;;;;;24.05;6.55;;;12.60;99.90;;;;;;5098835;28;20074;-77
2022/05/09 06:53:46;;;;;;;29.88;7.28;;;12.80;99.90;;;;;;5115995;27;20054;-77
2022/05/09 06:56:12;;;;;;;24.88;7.07;;;12.90;99.90;;;;;;5099074;27;20385;-73
2022/05/09 06:58:39;;;;;;;25.35;7.18;;;13.00;99.90;;;;;;5103979;28;20057;-75
2022/05/09 07:01:14;;;;;;;21.35;6.30;;;13.10;99.90;;;;;;5123298;28;20494;-74
2022/05/09 07:03:40;;;;;;;22.85;6.05;;;13.00;99.90;;;;;;5116011;28;20493;-74
2022/05/09 07:06:05;;;;;;;17.65;5.55;;;13.10;99.90;;;;;;5082351;28;20051;-74
2022/05/09 07:08:32;;;;;;;20.70;6.38;;;13.30;99.90;;;;;;5099013;28;20050;-74
2022/05/09 07:10:58;;;;;;;22.17;5.93;;;13.30;99.90;;;;;;5116371;28;20110;-73
2022/05/09 07:13:24;;;;;;;21.52;5.10;;;13.50;99.90;;;;;;5116205;28;20043;-82
2022/05/09 07:15:50;;;;;;;16.23;4.78;;;13.60;99.90;;;;;;5116085;28;20047;-81
2022/05/09 07:18:16;;;;;;;18.80;5.32;;;13.50;99.90;;;;;;5099199;28;20111;-81
2022/05/09 07:20:42;;;;;;;16.20;4.63;;;13.40;99.90;;;;;;5082104;28;20040;-78
2022/05/09 07:23:10;;;;;;;17.95;4.55;;;13.50;99.90;;;;;;5115766;28;20130;-77
2022/05/09 07:25:37;;;;;;;18.55;4.68;;;13.50;99.90;;;;;;5116539;28;20054;-85
2022/05/09 07:28:03;;;;;;;17.08;4.80;;;13.70;99.90;;;;;;5115815;28;20079;-84
2022/05/09 07:30:29;;;;;;;17.30;4.50;;;13.60;99.90;;;;;;5116080;28;20095;-82
2022/05/09 07:32:56;;;;;;;18.85;5.30;;;13.60;99.90;;;;;;5116114;28;20047;-83
2022/05/09 07:35:23;;;;;;;17.80;5.07;;;13.70;99.90;;;;;;5115865;28;20038;-82
2022/05/09 07:37:49;;;;;;;18.13;4.90;;;13.90;99.90;;;;;;5099245;28;20498;-80
2022/05/09 07:40:17;;;;;;;20.40;4.78;;;13.90;99.90;;;;;;5115804;28;20088;-74
2022/05/09 07:42:45;;;;;;;17.02;4.70;;;14.00;99.90;;;;;;5116067;28;20043;-74
2022/05/09 07:45:14;;;;;;;18.25;4.75;;;14.20;99.90;;;;;;5098801;28;20478;-74
2022/05/09 07:47:40;;;;;;;17.23;4.43;;;14.50;99.90;;;;;;5098935;28;20047;-74
2022/05/09 07:50:10;;;;;;;17.27;4.40;;;14.60;99.90;;;;;;5115183;28;20047;-74
2022/05/09 07:52:36;;;;;;;16.98;4.00;;;14.70;99.90;;;;;;5099236;28;20408;-83
2022/05/09 07:55:03;;;;;;;68.22;7.50;;;14.70;99.40;;;;;;5115947;28;20074;-82
2022/05/09 07:57:29;;;;;;;18.60;4.40;;;14.60;99.50;;;;;;5099056;28;20043;-81
2022/05/09 07:59:57;;;;;;;17.48;4.35;;;14.80;99.60;;;;;;5115317;28;20104;-79
2022/05/09 08:02:23;;;;;;;10.68;3.40;;;14.90;99.30;;;;;;5115963;28;20114;-77
2022/05/09 08:04:48;;;;;;;15.80;3.67;;;14.90;98.70;;;;;;5116923;27;20039;-77
2022/05/09 08:07:14;;;;;;;15.38;3.85;;;14.80;98.40;;;;;;5102679;27;20477;-78
2022/05/09 08:09:40;;;;;;;20.42;4.80;;;14.80;98.90;;;;;;5119618;27;20090;-76
2022/05/09 08:12:06;;;;;;;18.70;4.00;;;14.80;98.40;;;;;;5119571;27;20089;-76
2022/05/09 08:14:31;;;;;;;15.57;3.85;;;15.00;98.60;;;;;;5102691;27;20054;-75
2022/05/09 08:16:57;;;;;;;12.68;3.28;;;15.00;98.70;;;;;;5101815;27;20047;-79
2022/05/09 08:19:23;;;;;;;18.73;4.38;;;15.30;99.00;;;;;;5138369;27;20105;-79
2022/05/09 08:21:50;;;;;;;20.67;4.50;;;15.50;99.30;;;;;;5118892;27;20059;-87
2022/05/09 08:24:23;;;;;;;15.85;4.20;;;15.50;98.90;;;;;;5119141;27;20397;-90
2022/05/09 08:27:06;;;;;;;16.20;4.43;;;15.70;98.90;;;;;;5086082;27;20044;-88
2022/05/09 08:29:32;;;;;;;19.10;4.00;;;15.90;99.10;;;;;;5072740;27;20093;-84
2022/05/09 08:31:58;;;;;;;17.42;3.20;;;16.00;98.90;;;;;;5102319;27;20544;-86
2022/05/09 08:34:23;;;;;;;15.60;3.85;;;16.10;98.90;;;;;;5101703;27;20054;-85
2022/05/09 08:36:51;;;;;;;27.13;4.55;;;16.20;98.20;;;;;;5101782;27;20039;-86
2022/05/09 08:39:17;;;;;;;15.18;3.50;;;16.30;98.10;;;;;;5102614;27;20047;-87
2022/05/09 08:41:51;;;;;;;16.13;3.53;;;16.30;98.50;;;;;;5068943;27;20090;-87
2022/05/09 08:44:40;;;;;;;14.98;3.20;;;16.60;98.70;;;;;;5102456;27;20489;-81
2022/05/09 08:47:33;;;;;;;12.10;3.33;;;16.90;98.40;;;;;;5118844;27;20039;-82
2022/05/09 08:50:16;;;;;;;11.75;3.67;;;16.90;97.80;;;;;;5118293;27;20055;-85
2022/05/09 08:52:49;;;;;;;11.40;3.38;;;17.00;97.80;;;;;;5101696;27;20047;-79
2022/05/09 08:55:22;;;;;;;15.73;3.80;;;17.10;97.80;;;;;;5118551;27;20079;-76
2022/05/09 08:57:53;;;;;;;46.17;4.68;;;17.10;97.80;;;;;;5119685;27;20484;-78
2022/05/09 09:00:20;;;;;;;25.08;3.70;;;17.30;97.80;;;;;;5121585;27;20047;-78
2022/05/09 09:03:30;;;;;;;20.65;3.47;;;17.30;97.40;;;;;;5138922;27;20098;-77
2022/05/09 09:06:03;;;;;;;16.98;3.58;;;17.40;97.80;;;;;;5116939;27;20158;-76
2022/05/09 09:08:51;;;;;;;13.65;3.00;;;17.60;98.00;;;;;;5139008;27;20095;-77
2022/05/09 09:11:39;;;;;;;15.32;3.40;;;17.40;97.40;;;;;;5138890;27;20039;-78
2022/05/09 09:14:18;;;;;;;12.30;3.05;;;17.40;98.00;;;;;;5139023;27;20039;-77
2022/05/09 09:17:05;;;;;;;11.05;3.10;;;17.60;97.40;;;;;;5156814;27;20038;-77
2022/05/09 09:19:52;;;;;;;15.88;3.15;;;17.70;96.70;;;;;;5121809;27;20051;-77
2022/05/09 09:22:27;;;;;;;13.10;3.08;;;17.90;97.20;;;;;;5138727;27;20125;-74
2022/05/09 09:25:27;;;;;;;14.00;3.00;;;17.90;96.30;;;;;;5138513;27;20064;-76
2022/05/09 09:28:17;;;;;;;12.25;2.60;;;18.40;96.60;;;;;;5121687;27;20062;-85
2022/05/09 09:30:46;;;;;;;13.75;2.42;;;18.50;96.10;;;;;;5126421;27;20055;-89
2022/05/09 09:33:14;;;;;;;16.77;2.97;;;18.50;96.10;;;;;;5121587;27;20076;-86
2022/05/09 09:36:01;;;;;;;10.07;3.40;;;18.40;96.00;;;;;;5121234;27;20043;-86
2022/05/09 09:38:42;;;;;;;12.70;2.65;;;18.60;96.80;;;;;;5121238;27;20137;-86
2022/05/09 09:41:31;;;;;;;11.95;2.72;;;18.50;95.70;;;;;;5121634;27;20466;-85
2022/05/09 09:44:13;;;;;;;13.13;2.80;;;18.50;95.00;;;;;;5138149;27;20042;-75
2022/05/09 09:47:04;;;;;;;13.95;3.15;;;18.70;95.00;;;;;;5130107;27;22549;-79
2022/05/09 09:49:32;;;;;;;11.15;2.92;;;19.20;95.10;;;;;;5096545;28;20490;-94
2022/05/09 09:51:58;;;;;;;15.85;2.63;;;19.40;94.90;;;;;;5080690;28;20052;-94
2022/05/09 09:54:31;;;;;;;13.38;2.75;;;19.00;94.50;;;;;;5080742;28;20478;-96
2022/05/09 09:57:14;;;;;;;13.55;3.30;;;19.00;94.90;;;;;;5097309;28;20418;-90
2022/05/09 09:59:40;;;;;;;15.48;2.78;;;19.00;94.70;;;;;;5096996;27;20055;-91
2022/05/09 10:02:25;;;;;;;11.02;2.40;;;19.30;95.20;;;;;;5100888;27;20047;-90
2022/05/09 10:04:53;;;;;;;7.60;1.90;;;19.10;94.90;;;;;;5105129;28;20039;-94
2022/05/09 10:07:31;;;;;;;8.68;2.08;;;19.50;92.70;;;;;;5079925;28;20518;-93
2022/05/09 10:10:10;;;;;;;13.50;2.70;;;19.60;93.40;;;;;;5080081;28;20101;-89
2022/05/09 10:12:41;;;;;;;11.13;2.55;;;19.50;92.90;;;;;;5131677;27;20532;-90
2022/05/09 10:15:25;;;;;;;48.97;4.88;;;19.50;93.30;;;;;;5097407;28;20046;-89
2022/05/09 10:17:51;;;;;;;12.85;2.78;;;19.90;94.00;;;;;;5131415;27;20134;-89
2022/05/09 10:20:33;;;;;;;11.23;2.30;;;20.10;94.00;;;;;;5130598;27;20502;-87
2022/05/09 10:26:23;;;;;;;11.35;2.85;;;20.20;93.00;;;;;;5096672;28;20446;-87
2022/05/09 10:28:59;;;;;;;8.70;2.47;;;20.30;93.70;;;;;;5095582;28;20111;-85
2022/05/09 10:31:47;;;;;;;8.40;2.45;;;20.30;93.00;;;;;;5130732;27;20048;-77
2022/05/09 10:34:48;;;;;;;8.95;2.97;;;20.30;93.50;;;;;;5096357;28;20048;-77
2022/05/09 10:37:48;;;;;;;10.90;2.95;;;20.80;92.90;;;;;;5096421;28;20051;-79
2022/05/09 10:40:44;;;;;;;9.43;2.88;;;20.60;92.20;;;;;;5130218;27;20047;-81
2022/05/09 10:43:35;;;;;;;9.07;2.45;;;20.70;93.40;;;;;;5079070;28;20386;-81
2022/05/09 10:46:09;;;;;;;12.35;2.70;;;20.60;93.10;;;;;;5080643;28;20051;-85
2022/05/09 10:48:49;;;;;;;9.68;3.00;;;20.70;92.90;;;;;;5098599;28;20058;-75
2022/05/09 10:51:28;;;;;;;9.02;2.75;;;21.10;92.80;;;;;;5096709;28;20156;-75
2022/05/09 10:54:03;;;;;;;15.55;2.88;;;21.70;92.30;;;;;;5114121;28;20486;-75
2022/05/09 10:56:46;;;;;;;10.37;2.40;;;22.00;92.80;;;;;;5113983;28;20065;-79
2022/05/09 10:59:21;;;;;;;7.43;2.45;;;22.20;92.60;;;;;;5122686;28;20507;-75
2022/05/09 11:02:02;;;;;;;12.38;2.13;;;22.30;92.20;;;;;;5112934;28;20059;-76
2022/05/09 11:04:32;;;;;;;8.18;2.22;;;22.70;92.80;;;;;;5112999;28;20058;-76
2022/05/09 11:07:17;;;;;;;9.68;2.30;;;23.00;92.60;;;;;;5112768;28;20603;-75
2022/05/09 11:10:01;;;;;;;8.98;2.33;;;22.80;93.30;;;;;;5112688;28;20044;-86
2022/05/09 11:12:36;;;;;;;10.82;2.92;;;22.60;92.00;;;;;;5095659;28;20506;-85
2022/05/09 11:15:27;;;;;;;10.70;2.55;;;21.40;91.30;;;;;;5095778;28;20040;-85
2022/05/09 11:18:25;;;;;;;20.05;2.30;;;21.50;92.00;;;;;;5113095;28;20058;-75
2022/05/09 11:21:01;;;;;;;12.68;2.58;;;21.80;92.50;;;;;;5116184;28;20106;-73
2022/05/09 11:23:50;;;;;;;10.45;3.00;;;22.50;92.30;;;;;;5113997;28;20050;-74
2022/05/09 11:26:22;;;;;;;8.02;2.38;;;23.10;92.10;;;;;;5112612;28;20062;-72
2022/05/09 11:29:12;;;;;;;8.45;2.10;;;23.60;92.90;;;;;;5112869;28;20059;-74
2022/05/09 11:32:02;;;;;;;12.95;2.78;;;24.00;92.10;;;;;;5112660;28;20132;-73
2022/05/09 11:35:21;;;;;;;9.60;2.45;;;23.70;92.60;;;;;;5124846;27;20051;-77
2022/05/09 11:37:46;;;;;;;10.30;2.45;;;23.70;91.40;;;;;;5082296;28;20073;-88
2022/05/09 11:40:31;;;;;;;13.07;1.80;;;24.00;92.20;;;;;;5135123;27;20479;-79
2022/05/09 11:43:37;;;;;;;13.70;2.40;;;23.80;91.50;;;;;;5137217;27;20092;-81
2022/05/09 11:46:27;;;;;;;12.18;2.22;;;23.10;92.50;;;;;;5119405;27;20082;-81
2022/05/09 11:48:58;;;;;;;7.18;1.77;;;23.00;91.80;;;;;;5137439;27;20076;-82
2022/05/09 11:51:54;;;;;;;7.00;1.85;;;22.90;91.70;;;;;;5136766;27;20042;-82
2022/05/09 11:54:34;;;;;;;8.70;2.13;;;23.30;92.20;;;;;;5136531;27;20047;-82
2022/05/09 11:57:07;;;;;;;6.88;1.77;;;23.90;92.70;;;;;;5171484;27;20059;-81
2022/05/09 11:59:34;;;;;;;10.73;1.95;;;24.30;92.20;;;;;;5119302;27;20580;-82
2022/05/09 12:02:05;;;;;;;9.70;2.22;;;24.40;91.30;;;;;;5136786;27;20107;-82
2022/05/09 12:04:47;;;;;;;9.43;1.95;;;24.60;91.30;;;;;;5137712;27;20039;-82
2022/05/09 12:07:22;;;;;;;7.93;1.80;;;24.50;91.60;;;;;;5136518;27;20082;-82
2022/05/09 12:10:17;;;;;;;8.67;2.17;;;24.60;91.50;;;;;;5136610;27;20047;-83
2022/05/09 12:12:46;;;;;;;10.82;1.98;;;24.70;91.30;;;;;;5136670;27;20047;-83
2022/05/09 12:15:15;;;;;;;10.32;2.03;;;24.90;91.20;;;;;;5136207;27;20136;-82
2022/05/09 12:17:42;;;;;;;8.70;2.10;;;24.70;91.10;;;;;;5119654;27;20371;-83
2022/05/09 12:20:08;;;;;;;11.98;2.53;;;24.80;91.60;;;;;;5118582;27;20046;-77
2022/05/09 12:22:39;;;;;;;10.45;1.55;;;25.00;91.40;;;;;;5136737;27;20470;-77
2022/05/09 12:25:09;;;;;;;5.85;1.67;;;25.50;92.30;;;;;;5136488;27;20443;-77
2022/05/09 12:27:46;;;;;;;8.00;2.13;;;25.70;92.00;;;;;;5136190;27;20100;-79
2022/05/09 12:30:42;;;;;;;8.27;1.95;;;25.30;90.60;;;;;;5136613;27;20046;-76
2022/05/09 12:33:37;;;;;;;11.30;3.47;;;25.50;91.40;;;;;;5136330;27;20139;-75
2022/05/09 12:36:13;;;;;;;8.73;1.85;;;25.60;90.70;;;;;;5113022;27;20192;-77
2022/05/09 12:38:42;;;;;;;7.13;1.80;;;26.10;90.90;;;;;;5136347;27;20047;-76
2022/05/09 12:41:10;;;;;;;6.68;1.92;;;26.80;91.20;;;;;;5135835;27;20050;-76
2022/05/09 12:43:39;;;;;;;14.85;1.85;;;26.20;91.40;;;;;;5135839;27;20478;-76
2022/05/09 12:46:09;;;;;;;7.80;1.83;;;26.40;90.60;;;;;;5135681;27;20051;-76
2022/05/09 12:48:40;;;;;;;7.65;1.92;;;26.70;90.70;;;;;;5135945;27;20396;-76
2022/05/09 12:51:11;;;;;;;10.13;1.90;;;26.50;90.40;;;;;;5135757;27;20051;-76
2022/05/09 12:53:38;;;;;;;8.25;1.60;;;26.60;91.40;;;;;;5170286;27;20046;-76
2022/05/09 12:56:20;;;;;;;7.40;2.10;;;26.80;91.80;;;;;;5135564;27;20054;-74
2022/05/09 12:58:58;;;;;;;7.70;1.63;;;26.90;90.70;;;;;;5135328;27;20051;-75
2022/05/09 13:01:26;;;;;;;10.88;1.85;;;26.30;91.10;;;;;;5118410;27;20443;-75
2022/05/09 13:03:56;;;;;;;43.28;3.13;;;26.60;91.00;;;;;;5135346;27;20050;-75
2022/05/09 13:06:26;;;;;;;10.60;1.70;;;26.80;90.30;;;;;;5135511;27;20126;-76
2022/05/09 13:08:52;;;;;;;12.65;1.95;;;26.80;90.50;;;;;;5135370;27;20493;-76
2022/05/09 13:11:30;;;;;;;7.88;1.80;;;27.00;91.30;;;;;;5135508;27;20051;-76
2022/05/09 13:14:06;;;;;;;5.97;1.70;;;26.70;90.60;;;;;;5135415;27;20043;-76